Skip Navigation Links
NOAA logo - Click to go to the NOAA homepage
NOAA's National Weather Service
Alaska Aviation Weather Unit
  NWS logo - Click to go to the NWS homepage
Left Navbar Graphic     17 AKDT = 01 GMT

   
NOAA is celebrating 200 years of science, service, and stewardship. Visit the NOAA 200th celebration Web site to learn more.
USA.gov is the U.S. Government's official Web portal to all Federal, state and local government Web resources and services.
Facebook
NWS on Facebook

Important Change Regarding the AAWU Web Presence

 

Over the last several months, the AAWU has been working to navigate its webpages to a nationally supported server. Security, as well as other needs, have necessitated the change.  In the process, we have made an effort to enhance the functionality of our website, as well as some of our products. As of June 27, 2017, aawu.arh.noaa.gov will be discontinued. The new AAWU web address is weather.gov/aawu. It is now live and will run in-parallel with the old site until it is discontinued. Please send any feedback or questions regarding the new webpages to nws.ar.aawu.webauthors@noaa.gov.  Thank you for your patience during this time of transition.
AAWU Home :: Display TAF Add Bookmark
METAR PAPH 251956Z AUTO 15015G22KT 10SM OVC065 12/06 A2998 RMK AO2
 SLP157 T01170056=

METAR PAPH 252056Z AUTO 15018KT 10SM -RA BKN070 11/07 A2997 RMK AO2
     RAB48 SLP151 P0000 60000 T01060067 56018=

METAR PAPH 252156Z AUTO 15017KT 10SM -RA CLR 10/08 A2995 RMK AO2
 SLP145 P0000 T01000078=

METAR PAPH 252256Z AUTO 14022G25KT 10SM -RA SCT090 10/07 A2992 RMK AO2
     PK WND 14026/2247 SLP135 P0001 T01000072=

PAPH 252356Z AUTO 14020KT 10SM -RA FEW024 BKN030 OVC085 09/07
     A2990 RMK AO2 PK WND 14029/2315 SLP128 P0002 60003 T00940072
     10117 20094 58023=

PAPH 260003Z AUTO 14014G24KT 10SM -RA FEW022 BKN027 OVC080 09/08
     A2990 RMK AO2 P0001=

SPECI PAPH 260025Z AUTO 14017KT 10SM -RA SCT028 BKN036 OVC090 10/07
     A2989 RMK AO2 P0001=

METAR PAPH 260056Z AUTO 14022G25KT 10SM BKN033 BKN095 11/07 A2986 RMK
     AO2 PK WND 15026/0043 RAE26 SLP115 P0001 T01060072=


NOAA's National Weather Service
Alaska Aviation Weather Unit
6930 Sand Lake Road
Anchorage, AK 99502-1845
Disclaimer
Credits
Glossary
Privacy Policy
About Us
Career Opportunities
Contact AAWU Internet Services Site last modified: April, 17th 2012